createdAt,value
2022-11-12T00:00:56.346Z,27.15
2022-11-12T00:03:22.928Z,23.88
2022-11-12T00:05:50.661Z,23.98
2022-11-12T00:08:17.821Z,26.60
2022-11-12T00:10:45.260Z,25.02
2022-11-12T00:13:12.351Z,26.02
2022-11-12T00:15:40.050Z,24.67
2022-11-12T00:18:07.601Z,24.38
2022-11-12T00:20:34.902Z,28.45
2022-11-12T00:23:01.781Z,22.48
2022-11-12T00:25:28.600Z,23.00
2022-11-12T00:28:01.311Z,21.75
2022-11-12T00:30:27.937Z,23.63
2022-11-12T00:32:54.499Z,23.08
2022-11-12T00:35:21.072Z,25.23
2022-11-12T00:37:47.668Z,22.35
2022-11-12T00:40:14.406Z,20.45
2022-11-12T00:42:40.988Z,20.42
2022-11-12T00:45:07.927Z,20.27
2022-11-12T00:47:34.570Z,20.88
2022-11-12T00:50:01.335Z,19.67
2022-11-12T00:52:27.982Z,21.67
2022-11-12T00:54:54.576Z,18.42
2022-11-12T00:57:21.174Z,21.58
2022-11-12T00:59:47.741Z,19.70
2022-11-12T01:02:14.371Z,19.30
2022-11-12T01:04:40.955Z,21.15
2022-11-12T01:07:07.585Z,20.60
2022-11-12T01:09:34.300Z,19.40
2022-11-12T01:12:00.883Z,22.52
2022-11-12T01:14:27.565Z,19.77
2022-11-12T01:16:54.168Z,19.17
2022-11-12T01:19:20.812Z,20.65
2022-11-12T01:21:47.410Z,21.65
2022-11-12T01:24:13.991Z,21.13
2022-11-12T01:26:40.655Z,19.52
2022-11-12T01:29:07.459Z,20.42
2022-11-12T01:31:36.913Z,24.42
2022-11-12T01:34:06.218Z,19.55
2022-11-12T01:36:36.503Z,21.52
2022-11-12T01:39:05.207Z,20.08
2022-11-12T01:41:34.228Z,22.27
2022-11-12T01:44:16.288Z,21.70
2022-11-12T01:47:07.759Z,26.45
2022-11-12T01:49:58.113Z,21.80
2022-11-12T01:52:27.610Z,20.88
2022-11-12T01:55:00.619Z,18.83
2022-11-12T01:57:34.797Z,19.65
2022-11-12T02:00:06.850Z,18.95
2022-11-12T02:02:35.135Z,17.02
2022-11-12T02:05:04.467Z,17.65
2022-11-12T02:07:32.594Z,19.48
2022-11-12T02:10:02.249Z,19.90
2022-11-12T02:12:48.391Z,16.83
2022-11-12T02:15:15.160Z,14.48
2022-11-12T02:17:41.813Z,18.35
2022-11-12T02:20:10.984Z,14.93
2022-11-12T02:22:37.608Z,17.10
2022-11-12T02:25:04.698Z,20.77
2022-11-12T02:27:31.323Z,19.05
2022-11-12T02:29:57.897Z,20.33
2022-11-12T02:32:24.499Z,22.70
2022-11-12T02:34:51.109Z,21.55
2022-11-12T02:37:17.684Z,19.75
2022-11-12T02:39:44.254Z,22.00
2022-11-12T02:42:10.837Z,19.67
2022-11-12T02:44:37.521Z,22.65
2022-11-12T02:47:04.141Z,21.40
2022-11-12T02:49:30.725Z,29.08
2022-11-12T02:51:57.330Z,18.20
2022-11-12T02:54:23.965Z,20.48
2022-11-12T02:56:50.610Z,30.67
2022-11-12T02:59:17.261Z,22.85
2022-11-12T03:01:43.859Z,17.25
2022-11-12T03:04:10.449Z,29.80
2022-11-12T03:06:37.504Z,21.17
2022-11-12T03:09:04.188Z,20.45
2022-11-12T03:11:30.797Z,18.35
2022-11-12T03:13:57.389Z,28.48
2022-11-12T03:16:23.995Z,21.50
2022-11-12T03:18:50.600Z,23.33
2022-11-12T03:21:17.279Z,28.63
2022-11-12T03:23:43.857Z,25.40
2022-11-12T03:26:10.509Z,18.15
2022-11-12T03:28:37.153Z,25.48
2022-11-12T03:31:03.910Z,23.00
2022-11-12T03:33:30.679Z,26.88
2022-11-12T03:35:57.295Z,24.27
2022-11-12T03:38:24.185Z,25.75
2022-11-12T03:40:51.163Z,21.20
2022-11-12T03:43:17.864Z,16.55
2022-11-12T03:45:44.493Z,70.68
2022-11-12T03:48:11.174Z,29.52
2022-11-12T03:50:37.821Z,25.52
2022-11-12T03:53:04.442Z,28.52
2022-11-12T03:55:31.181Z,23.60
2022-11-12T03:57:58.526Z,18.95
2022-11-12T04:00:27.261Z,23.00
2022-11-12T04:02:54.532Z,16.48
2022-11-12T04:05:40.077Z,27.92
2022-11-12T04:08:33.936Z,22.73
2022-11-12T04:11:01.958Z,23.60
2022-11-12T04:13:29.267Z,26.52
2022-11-12T04:16:22.194Z,16.83
2022-11-12T04:19:09.465Z,14.77
2022-11-12T04:21:56.686Z,17.70
2022-11-12T04:24:53.500Z,15.20
2022-11-12T04:27:25.491Z,50.47
2022-11-12T04:30:11.861Z,17.42
2022-11-12T04:32:40.510Z,13.65
2022-11-12T04:35:09.006Z,38.55
2022-11-12T04:37:45.921Z,24.20
2022-11-12T04:40:45.044Z,25.38
2022-11-12T04:43:32.362Z,14.27
2022-11-12T04:45:59.456Z,20.00
2022-11-12T04:48:26.541Z,16.85
2022-11-12T04:50:59.442Z,16.95
2022-11-12T04:55:54.767Z,13.98
2022-11-12T04:58:22.192Z,16.90
2022-11-12T05:00:49.714Z,15.77
2022-11-12T05:03:17.461Z,19.20
2022-11-12T05:05:44.160Z,18.30
2022-11-12T05:08:10.769Z,13.57
2022-11-12T05:10:37.362Z,15.85
2022-11-12T05:13:03.920Z,18.08
2022-11-12T05:15:30.562Z,18.42
2022-11-12T05:17:57.749Z,18.58
2022-11-12T05:20:24.365Z,16.88
2022-11-12T05:23:05.628Z,16.02
2022-11-12T05:25:35.520Z,14.18
2022-11-12T05:28:02.114Z,13.35
2022-11-12T05:30:28.689Z,17.50
2022-11-12T05:32:55.290Z,17.60
2022-11-12T05:35:21.944Z,14.77
2022-11-12T05:37:48.544Z,14.93
2022-11-12T05:40:15.198Z,14.30
2022-11-12T05:42:41.816Z,15.98
2022-11-12T05:45:09.113Z,13.25
2022-11-12T05:47:35.687Z,16.20
2022-11-12T05:50:02.325Z,14.07
2022-11-12T05:52:28.938Z,15.63
2022-11-12T05:54:55.532Z,13.23
2022-11-12T05:57:22.149Z,15.88
2022-11-12T05:59:48.740Z,15.73
2022-11-12T06:02:15.432Z,13.95
2022-11-12T06:04:42.078Z,17.10
2022-11-12T06:07:08.739Z,14.77
2022-11-12T06:09:35.438Z,16.45
2022-11-12T06:12:06.119Z,14.48
2022-11-12T06:14:32.724Z,13.50
2022-11-12T06:16:59.296Z,16.35
2022-11-12T06:19:25.956Z,15.07
2022-11-12T06:21:52.572Z,14.90
2022-11-12T06:24:19.314Z,12.93
2022-11-12T06:26:45.934Z,16.27
2022-11-12T06:29:12.698Z,11.93
2022-11-12T06:31:39.299Z,13.45
2022-11-12T06:34:07.026Z,15.20
2022-11-12T06:36:33.944Z,11.32
2022-11-12T06:39:00.575Z,15.43
2022-11-12T06:41:27.167Z,11.98
2022-11-12T06:43:53.813Z,12.80
2022-11-12T06:46:20.539Z,15.25
2022-11-12T06:48:47.151Z,13.40
2022-11-12T06:51:19.884Z,13.68
2022-11-12T06:56:14.256Z,13.40
2022-11-12T06:58:41.895Z,12.43
2022-11-12T07:01:14.236Z,15.85
2022-11-12T07:03:42.558Z,14.38
2022-11-12T07:06:11.854Z,15.60
2022-11-12T07:08:39.430Z,15.10
2022-11-12T07:11:07.119Z,17.83
2022-11-12T07:13:35.174Z,15.50
2022-11-12T07:16:02.794Z,13.55
2022-11-12T07:18:30.270Z,16.63
2022-11-12T07:21:01.870Z,12.95
2022-11-12T07:23:30.427Z,14.20
2022-11-12T07:26:02.403Z,15.15
2022-11-12T07:28:29.923Z,14.70
2022-11-12T07:31:01.280Z,13.07
2022-11-12T07:33:28.801Z,17.15
2022-11-12T07:36:05.665Z,15.38
2022-11-12T07:38:36.083Z,13.15
2022-11-12T07:41:04.067Z,14.07
2022-11-12T07:43:32.145Z,15.63
2022-11-12T07:46:10.917Z,17.42
2022-11-12T07:51:07.211Z,12.50
2022-11-12T07:53:34.050Z,15.48
2022-11-12T07:56:02.140Z,15.02
2022-11-12T07:58:31.321Z,13.57
2022-11-12T08:00:58.456Z,13.15
2022-11-12T08:03:25.483Z,15.60
2022-11-12T08:05:52.110Z,15.82
2022-11-12T08:08:18.721Z,15.00
2022-11-12T08:10:45.290Z,16.38
2022-11-12T08:13:11.830Z,14.65
2022-11-12T08:15:38.443Z,15.07
2022-11-12T08:18:05.109Z,13.38
2022-11-12T08:20:31.741Z,14.15
2022-11-12T08:23:01.743Z,14.02
2022-11-12T08:25:28.405Z,16.27
2022-11-12T08:27:59.394Z,12.48
2022-11-12T08:30:27.508Z,13.98
2022-11-12T08:33:03.437Z,15.02
2022-11-12T08:35:31.596Z,15.70
2022-11-12T08:38:02.454Z,15.27
2022-11-12T08:40:31.033Z,12.93
2022-11-12T08:43:06.450Z,13.40
2022-11-12T08:45:34.828Z,14.43
2022-11-12T08:48:06.657Z,16.08
2022-11-12T08:50:34.384Z,14.25
2022-11-12T08:53:02.592Z,14.25
2022-11-12T08:55:30.509Z,13.07
2022-11-12T08:58:01.840Z,11.30
2022-11-12T09:00:33.566Z,13.68
2022-11-12T09:03:01.135Z,13.95
2022-11-12T09:05:28.561Z,14.48
2022-11-12T09:07:59.965Z,13.70
2022-11-12T09:10:27.627Z,12.45
2022-11-12T09:12:54.630Z,11.73
2022-11-12T09:15:38.883Z,15.30
2022-11-12T09:18:10.783Z,12.90
2022-11-12T09:20:37.482Z,13.43
2022-11-12T09:23:08.198Z,12.98
2022-11-12T09:25:36.446Z,14.13
2022-11-12T09:28:17.836Z,13.35
2022-11-12T09:30:50.047Z,12.52
2022-11-12T09:33:24.657Z,13.90
2022-11-12T09:35:52.427Z,13.52
2022-11-12T09:38:20.186Z,13.52
2022-11-12T09:40:52.930Z,18.92
2022-11-12T09:43:32.747Z,16.88
2022-11-12T09:46:32.490Z,15.15
2022-11-12T09:49:16.181Z,17.17
2022-11-12T09:51:51.926Z,13.90
2022-11-12T09:54:27.433Z,14.68
2022-11-12T09:56:54.681Z,14.63
2022-11-12T09:59:23.059Z,15.23
2022-11-12T10:01:55.044Z,12.73
2022-11-12T10:04:41.864Z,13.02
2022-11-12T10:07:37.635Z,14.40
2022-11-12T10:10:18.181Z,14.32
2022-11-12T10:12:50.571Z,12.68
2022-11-12T10:16:09.207Z,13.43
2022-11-12T10:18:58.813Z,12.85
2022-11-12T10:21:43.476Z,13.82
2022-11-12T10:24:11.643Z,14.02
2022-11-12T10:26:40.149Z,13.45
2022-11-12T10:29:31.271Z,12.63
2022-11-12T10:32:00.591Z,14.68
2022-11-12T10:34:27.329Z,14.50
2022-11-12T10:37:10.336Z,11.93
2022-11-12T10:39:46.238Z,14.80
2022-11-12T10:42:15.476Z,13.05
2022-11-12T10:44:43.391Z,12.77
2022-11-12T10:47:46.556Z,13.98
2022-11-12T10:50:22.830Z,11.15
2022-11-12T10:53:00.215Z,12.55
2022-11-12T10:55:29.513Z,13.32
2022-11-12T10:58:05.992Z,14.65
2022-11-12T11:00:32.797Z,13.38
2022-11-12T11:03:02.196Z,15.80
2022-11-12T11:05:34.854Z,12.52
2022-11-12T11:08:02.315Z,12.13
2022-11-12T11:10:34.746Z,13.38
2022-11-12T11:16:05.413Z,15.38
2022-11-12T11:18:37.948Z,12.82
2022-11-12T11:21:19.062Z,14.43
2022-11-12T11:24:07.025Z,14.82
2022-11-12T11:27:03.998Z,13.25
2022-11-12T11:29:35.858Z,22.40
2022-11-12T11:32:20.717Z,20.15
2022-11-12T11:35:15.250Z,16.42
2022-11-12T11:38:02.505Z,12.35
2022-11-12T11:40:37.970Z,13.93
2022-11-12T11:43:23.028Z,15.35
2022-11-12T11:48:46.309Z,14.13
2022-11-12T11:51:31.582Z,15.13
2022-11-12T11:54:13.830Z,12.57
2022-11-12T11:56:43.380Z,12.25
2022-11-12T11:59:28.414Z,13.80
2022-11-12T12:04:51.571Z,12.68
2022-11-12T12:07:30.006Z,12.00
2022-11-12T12:10:09.209Z,12.25
2022-11-12T12:12:45.033Z,13.32
2022-11-12T12:15:35.104Z,12.20
2022-11-12T12:18:22.075Z,15.88
2022-11-12T12:20:59.776Z,10.40
2022-11-12T12:23:28.660Z,11.57
2022-11-12T12:26:00.481Z,9.88
2022-11-12T12:28:37.312Z,12.73
2022-11-12T12:31:18.606Z,11.10
2022-11-12T12:33:48.106Z,12.77
2022-11-12T12:36:19.879Z,12.38
2022-11-12T12:38:55.527Z,10.93
2022-11-12T12:41:27.653Z,10.38
2022-11-12T12:46:28.145Z,11.50
2022-11-12T12:48:57.641Z,10.88
2022-11-12T12:51:28.262Z,14.65
2022-11-12T12:53:54.918Z,11.27
2022-11-12T12:56:24.323Z,12.25
2022-11-12T12:58:51.472Z,12.25
2022-11-12T13:01:21.103Z,10.80
2022-11-12T13:03:53.561Z,11.70
2022-11-12T13:06:29.304Z,10.75
2022-11-12T13:09:20.059Z,11.55
2022-11-12T13:12:06.592Z,10.07
2022-11-12T13:14:36.397Z,11.70
2022-11-12T13:17:08.999Z,11.23
2022-11-12T13:19:49.237Z,11.07
2022-11-12T13:22:18.890Z,10.63
2022-11-12T13:25:13.347Z,11.27
2022-11-12T13:27:45.862Z,9.80
2022-11-12T13:30:18.252Z,10.48
2022-11-12T13:35:23.247Z,11.07
2022-11-12T13:38:08.237Z,11.48
2022-11-12T13:43:18.805Z,11.32
2022-11-12T13:45:49.709Z,11.30
2022-11-12T13:48:38.770Z,10.57
2022-11-12T13:51:32.005Z,11.32
2022-11-12T13:53:59.057Z,12.40
2022-11-12T13:56:32.299Z,13.00
2022-11-12T13:59:16.508Z,11.68
2022-11-12T14:01:43.618Z,11.63
2022-11-12T14:04:15.586Z,12.55
2022-11-12T14:06:51.890Z,12.05
2022-11-12T14:09:37.160Z,10.43
2022-11-12T14:12:03.747Z,11.10
2022-11-12T14:14:59.958Z,11.02
2022-11-12T14:17:29.322Z,9.55
2022-11-12T14:20:14.072Z,11.57
2022-11-12T14:22:43.071Z,9.23
2022-11-12T14:25:21.181Z,11.43
2022-11-12T14:27:49.697Z,9.68
2022-11-12T14:30:21.336Z,10.52
2022-11-12T14:32:53.649Z,10.23
2022-11-12T14:37:53.455Z,10.00
2022-11-12T14:40:20.578Z,8.48
2022-11-12T14:42:47.513Z,10.88
2022-11-12T14:45:17.364Z,10.15
2022-11-12T14:47:45.674Z,12.05
2022-11-12T14:50:31.712Z,12.98
2022-11-12T14:53:07.835Z,15.63
2022-11-12T14:55:36.982Z,13.55
2022-11-12T14:58:04.999Z,12.20
2022-11-12T15:00:34.442Z,11.27
2022-11-12T15:03:01.968Z,10.23
2022-11-12T15:05:28.807Z,10.68
2022-11-12T15:08:04.867Z,9.60
2022-11-12T15:10:33.573Z,10.10
2022-11-12T15:13:18.706Z,9.07
2022-11-12T15:16:07.841Z,8.75
2022-11-12T15:18:36.488Z,9.23
2022-11-12T15:21:12.279Z,10.57
2022-11-12T15:23:54.827Z,9.45
2022-11-12T15:26:32.420Z,12.43
2022-11-12T15:29:00.109Z,10.23
2022-11-12T15:31:26.821Z,11.80
2022-11-12T15:33:53.441Z,10.25
2022-11-12T15:36:22.729Z,9.60
2022-11-12T15:38:52.585Z,10.32
2022-11-12T15:41:30.458Z,13.48
2022-11-12T15:43:57.324Z,11.27
2022-11-12T15:46:23.983Z,11.07
2022-11-12T15:48:55.797Z,9.57
2022-11-12T15:51:22.941Z,11.18
2022-11-12T15:53:49.565Z,11.77
2022-11-12T15:56:19.176Z,10.73
2022-11-12T15:58:45.873Z,10.68
2022-11-12T16:01:12.792Z,11.50
2022-11-12T16:03:39.737Z,11.90
2022-11-12T16:06:09.161Z,13.10
2022-11-12T16:08:36.344Z,10.80
2022-11-12T16:11:03.235Z,11.27
2022-11-12T16:13:33.156Z,12.23
2022-11-12T16:16:03.814Z,13.32
2022-11-12T16:18:30.396Z,11.35
2022-11-12T16:20:56.989Z,13.07
2022-11-12T16:23:23.583Z,9.50
2022-11-12T16:25:50.420Z,11.02
2022-11-12T16:28:18.753Z,11.52
2022-11-12T16:30:46.250Z,11.75
2022-11-12T16:33:13.711Z,13.15
2022-11-12T16:35:40.754Z,13.57
2022-11-12T16:38:15.379Z,14.02
2022-11-12T16:40:42.802Z,10.73
2022-11-12T16:43:09.570Z,10.57
2022-11-12T16:45:39.389Z,9.75
2022-11-12T16:48:21.117Z,13.90
2022-11-12T16:50:47.944Z,15.15
2022-11-12T16:53:14.569Z,15.63
2022-11-12T16:55:41.445Z,13.48
2022-11-12T16:58:15.057Z,17.25
2022-11-12T17:00:45.515Z,12.57
2022-11-12T17:03:15.885Z,15.20
2022-11-12T17:05:42.473Z,13.52
2022-11-12T17:08:10.675Z,14.93
2022-11-12T17:10:37.283Z,15.30
2022-11-12T17:13:03.876Z,12.65
2022-11-12T17:15:30.536Z,12.40
2022-11-12T17:17:57.120Z,13.55
2022-11-12T17:20:23.720Z,13.77
2022-11-12T17:22:50.336Z,17.63
2022-11-12T17:25:17.001Z,18.20
2022-11-12T17:27:43.602Z,18.92
2022-11-12T17:30:11.854Z,19.63
2022-11-12T17:32:38.906Z,18.35
2022-11-12T17:35:06.110Z,19.35
2022-11-12T17:37:32.777Z,23.80
2022-11-12T17:39:59.343Z,24.40
2022-11-12T17:42:26.055Z,22.65
2022-11-12T17:44:52.681Z,20.65
2022-11-12T17:47:19.278Z,17.33
2022-11-12T17:49:45.928Z,20.40
2022-11-12T17:52:12.510Z,16.25
2022-11-12T17:54:39.162Z,21.30
2022-11-12T17:57:05.907Z,23.85
2022-11-12T17:59:32.548Z,22.27
2022-11-12T18:01:59.150Z,19.48
2022-11-12T18:04:29.832Z,20.48
2022-11-12T18:07:00.019Z,21.55
2022-11-12T18:09:26.827Z,22.10
2022-11-12T18:11:54.885Z,23.10
2022-11-12T18:14:22.984Z,21.85
2022-11-12T18:16:49.628Z,25.88
2022-11-12T18:19:16.230Z,21.30
2022-11-12T18:21:42.898Z,27.15
2022-11-12T18:24:15.195Z,22.33
2022-11-12T18:26:42.850Z,24.67
2022-11-12T18:29:09.488Z,25.92
2022-11-12T18:31:36.179Z,25.13
2022-11-12T18:34:02.787Z,24.38
2022-11-12T18:36:29.363Z,25.25
2022-11-12T18:38:56.362Z,22.15
2022-11-12T18:41:26.597Z,22.75
2022-11-12T18:43:54.500Z,23.58
2022-11-12T18:46:21.481Z,28.55
2022-11-12T18:48:48.543Z,22.75
2022-11-12T18:51:17.304Z,30.67
2022-11-12T18:53:45.570Z,26.88
2022-11-12T18:56:17.893Z,28.52
2022-11-12T18:58:46.290Z,24.25
2022-11-12T19:01:23.993Z,29.33
2022-11-12T19:03:55.937Z,27.65
2022-11-12T19:06:24.299Z,29.00
2022-11-12T19:08:51.338Z,26.58
2022-11-12T19:11:21.631Z,25.55
2022-11-12T19:13:55.231Z,21.67
2022-11-12T19:16:23.050Z,24.45
2022-11-12T19:18:51.160Z,34.15
2022-11-12T19:21:23.297Z,45.80
2022-11-12T19:23:54.611Z,44.40
2022-11-12T19:26:22.945Z,44.65
2022-11-12T19:28:49.767Z,38.70
2022-11-12T19:31:21.776Z,36.88
2022-11-12T19:33:49.053Z,35.05
2022-11-12T19:36:18.718Z,37.33
2022-11-12T19:38:45.282Z,35.47
2022-11-12T19:41:18.961Z,32.50
2022-11-12T19:43:46.412Z,31.70
2022-11-12T19:46:13.608Z,30.85
2022-11-12T19:48:40.240Z,30.40
2022-11-12T19:51:09.093Z,30.23
2022-11-12T19:53:41.544Z,33.58
2022-11-12T19:56:08.495Z,29.00
2022-11-12T19:58:35.157Z,30.35
2022-11-12T20:01:06.733Z,26.75
2022-11-12T20:03:33.932Z,29.42
2022-11-12T20:06:09.925Z,36.33
2022-11-12T20:08:37.098Z,28.80
2022-11-12T20:11:04.174Z,30.55
2022-11-12T20:13:31.040Z,30.25
2022-11-12T20:15:57.646Z,25.23
2022-11-12T20:18:24.707Z,28.60
2022-11-12T20:20:56.579Z,27.88
2022-11-12T20:23:24.007Z,24.98
2022-11-12T20:25:51.832Z,28.10
2022-11-12T20:28:18.878Z,31.75
2022-11-12T20:30:45.717Z,24.77
2022-11-12T20:33:15.737Z,29.95
2022-11-12T20:35:42.477Z,27.25
2022-11-12T20:38:09.189Z,29.33
2022-11-12T20:40:35.851Z,23.83
2022-11-12T20:43:02.516Z,27.08
2022-11-12T20:45:29.116Z,27.48
2022-11-12T20:47:56.267Z,28.13
2022-11-12T20:50:23.488Z,24.60
2022-11-12T20:52:50.270Z,29.30
2022-11-12T20:55:17.145Z,26.55
2022-11-12T20:57:43.800Z,22.95
2022-11-12T21:00:13.945Z,22.33
2022-11-12T21:02:41.951Z,28.23
2022-11-12T21:05:08.864Z,24.50
2022-11-12T21:07:35.569Z,24.15
2022-11-12T21:10:02.810Z,22.77
2022-11-12T21:12:30.793Z,21.08
2022-11-12T21:14:57.396Z,24.67
2022-11-12T21:17:24.044Z,22.38
2022-11-12T21:19:50.650Z,24.65
2022-11-12T21:22:17.616Z,25.83
2022-11-12T21:24:44.190Z,21.88
2022-11-12T21:27:11.714Z,19.90
2022-11-12T21:29:38.346Z,21.23
2022-11-12T21:32:05.141Z,26.35
2022-11-12T21:34:31.892Z,26.63
2022-11-12T21:36:59.096Z,21.58
2022-11-12T21:39:25.658Z,25.30
2022-11-12T21:41:53.908Z,24.65
2022-11-12T21:44:21.064Z,22.08
2022-11-12T21:46:47.662Z,26.60
2022-11-12T21:49:14.291Z,25.92
2022-11-12T21:51:41.063Z,23.35
2022-11-12T21:54:07.938Z,22.45
2022-11-12T21:56:34.876Z,25.60
2022-11-12T21:59:03.871Z,21.48
2022-11-12T22:01:33.954Z,27.77
2022-11-12T22:04:04.148Z,24.92
2022-11-12T22:06:30.781Z,22.25
2022-11-12T22:08:58.195Z,29.80
2022-11-12T22:11:27.578Z,24.05
2022-11-12T22:13:54.198Z,25.05
2022-11-12T22:16:26.293Z,24.15
2022-11-12T22:18:54.684Z,24.63
2022-11-12T22:21:27.186Z,22.20
2022-11-12T22:23:55.056Z,24.08
2022-11-12T22:26:25.275Z,25.05
2022-11-12T22:28:53.360Z,23.92
2022-11-12T22:31:24.278Z,29.60
2022-11-12T22:33:51.041Z,25.75
2022-11-12T22:36:20.904Z,25.10
2022-11-12T22:38:50.193Z,25.00
2022-11-12T22:41:22.649Z,29.50
2022-11-12T22:43:54.279Z,23.40
2022-11-12T22:46:35.614Z,26.17
2022-11-12T22:49:03.573Z,24.42
2022-11-12T22:51:32.849Z,23.60
2022-11-12T22:54:01.809Z,25.00
2022-11-12T22:56:29.212Z,25.13
2022-11-12T22:58:55.965Z,21.75
2022-11-12T23:01:31.100Z,29.33
2022-11-12T23:03:59.898Z,24.50
2022-11-12T23:06:27.600Z,24.83
2022-11-12T23:08:55.322Z,26.92
2022-11-12T23:11:22.447Z,25.08
2022-11-12T23:13:49.160Z,23.92
2022-11-12T23:16:18.306Z,26.85
2022-11-12T23:18:45.341Z,25.30
2022-11-12T23:21:17.780Z,23.98
2022-11-12T23:23:44.394Z,23.80
2022-11-12T23:26:12.860Z,25.17
2022-11-12T23:28:39.486Z,23.38
2022-11-12T23:31:19.406Z,23.65
2022-11-12T23:33:47.202Z,24.85
2022-11-12T23:36:14.221Z,23.10
2022-11-12T23:38:41.302Z,23.90
2022-11-12T23:41:09.670Z,21.83
2022-11-12T23:43:36.283Z,25.60
2022-11-12T23:46:03.228Z,26.88
2022-11-12T23:48:30.454Z,19.80
2022-11-12T23:51:10.428Z,23.60
2022-11-12T23:53:38.380Z,23.00
2022-11-12T23:56:06.738Z,24.45
2022-11-12T23:58:33.550Z,22.08
